Terminal Aerodrome Forecast
Issued by NWS

Home | Current Version | Previous Version | Text Only | Print | Product List | Glossary On
Versions: 1 2 3 4 5 6 7 8 9 10 11 12 13 14 15 16 17
000
FTUS43 KMQT 302000 AAB
TAFCMX
TAF AMD
KCMX 302010Z 3020/3118 26012KT P6SM -SHRA BKN070
      TEMPO 3020/3021 3SM RA
     FM302200 31006KT P6SM VCSH BKN100
     FM310300 27003KT P6SM SCT100
     FM311200 33006KT P6SM SCT120=

USA.gov is the U.S. government's official web portal to all federal, state and local government web resources and services.